Latest Coastal Weather Observations for Darwin Airport

IDD60701

Issued at 1:51 pm CST Monday 26 January 2015 (issued every 10 minutes, with the page automatically refreshed every 10 minutes)

About coastal observations | Map of coastal stations | Coastal observations for NT | Marine services | Other Formats
Station Details ID: 014015 Name: DARWIN AIRPORT Lat: -12.42 Lon: 130.89 Height: 30.4 m
Data from the previous 72 hours. | See also: Recent months at Darwin Airport
Date/Time
CST
Temp

°C
Wind Pressure Rain
since 9am
mm
Weather Cloud Vis
km
Sea
Height
m
Swell
Dir
 
Speed
knots
Gust
knots
hPa Trend Height
m
Period
s
Dir
26/01:30pm 28.4 SSW 14 18 1007.6 - 0.0 Showers Mostly clear 10 - - - -
26/01:00pm 32.1 WNW 17 21 1007.7 - 0.0 - Mostly clear 10 - - - -
26/12:30pm 31.2 WNW 16 18 1008.1 - 0.0 - Mostly clear 10 - - - -
26/12:00pm 31.6 WNW 13 16 1008.1 F 0.0 Fine Partly cloudy 30 - - - -
26/11:30am 31.1 WNW 12 16 1008.8 - 0.0 - Mostly clear 10 - - - -
26/10:30am 29.7 WNW 15 17 1009.5 - 0.0 - Partly cloudy 10 - - - -
26/10:00am 30.0 W 11 15 1009.5 - 0.0 - Partly cloudy 10 - - - -
26/09:30am 29.6 W 9 12 1009.5 - 0.0 - Mostly clear 10 - - - -
26/09:00am 29.0 W 11 14 1009.2 F 33.0 Fine Mostly cloudy 30 - - - -
26/08:30am 28.9 WNW 10 14 1009.4 - 32.8 - Mostly clear 10 - - - -
26/08:00am 28.0 WSW 7 8 1008.8 - 32.8 - Mostly clear 10 - - - -
26/07:30am 26.8 S 3 6 1008.7 - 32.8 - Mostly clear 10 - - - -
26/07:00am 25.8 SW 4 5 1008.8 - 32.8 - Mostly clear 10 - - - -
26/06:30am 25.7 SW 5 6 1008.7 - 32.8 - Mostly clear 10 - - - -
26/06:00am 25.2 N 2 5 1008.3 R 32.8 Recent precip. Mostly cloudy 30 - - - -
26/05:30am 25.2 ENE 4 6 1008.2 - 32.8 - Mostly clear 10 - - - -
26/05:00am 25.3 ENE 4 5 1008.1 - 32.8 - Mostly clear 10 - - - -
26/04:30am 25.3 ESE 5 6 1007.9 - 32.8 - Partly cloudy 10 - - - -
26/04:00am 25.4 E 5 6 1007.8 - 32.8 - Mostly clear 10 - - - -
26/03:30am 25.8 E 4 5 1007.5 - 32.8 - Mostly clear 10 - - - -
26/03:00am 26.1 SW 5 6 1007.7 F 32.8 Fine Mostly clear 10 - - - -
26/02:30am 25.9 CALM 0 0 1007.9 - 32.8 - Mostly clear 10 - - - -
26/02:00am 25.9 CALM 0 0 1008.3 - 32.8 - Mostly clear 10 - - - -
26/01:30am 25.9 WSW 4 4 1008.6 - 32.8 - Mostly clear 10 - - - -
26/01:00am 26.0 CALM 0 1 1008.8 - 32.8 - - 10 - - - -
26/12:30am 26.4 SSW 3 4 1009.3 - 32.8 - Mostly clear 10 - - - -
26/12:00am 26.4 CALM 0 0 1009.6 R 32.8 Fine Mostly clear 10 - - - -
 
Date/Time
CST
Temp

°C
Wind Pressure Rain
since 9am
mm
Weather Cloud Vis
km
Sea
Height
m
Swell
Dir
 
Speed
knots
Gust
knots
hPa Trend Height
m
Period
s
Dir
25/11:30pm 26.6 W 4 4 1009.8 - 32.8 - Mostly clear 10 - - - -
25/11:00pm 27.3 SW 5 7 1009.7 - 32.8 - Mostly clear 10 - - - -
25/10:30pm 27.3 WSW 5 6 1009.5 - 32.8 - Mostly clear 10 - - - -
25/10:00pm 27.1 W 6 7 1009.3 - 32.8 - - 10 - - - -
25/09:30pm 26.9 W 8 10 1009.1 - 32.8 - Mostly clear 10 - - - -
25/09:00pm 26.3 W 9 11 1008.3 F 32.8 Fine Mostly cloudy 30 - - - -
25/08:30pm 26.3 W 8 10 1008.6 - 32.8 - Mostly clear 10 - - - -
25/08:00pm 25.4 W 6 9 1008.7 - 32.8 - Mostly clear 10 - - - -
25/07:30pm 25.4 SSW 7 9 1008.4 - 32.8 - Mostly clear 10 - - - -
25/07:10pm 25.4 WSW 8 10 1008.5 - 32.6 Showers Mostly clear 10 - - - -
25/07:00pm 25.2 SW 9 15 1008.4 - 32.2 Showers Mostly clear 7 - - - -
25/06:43pm 25.6 W 10 18 1008.6 - 13.4 Showers Partly cloudy 0.8 - - - -
25/06:38pm 26.0 WNW 7 10 1008.2 - 4.6 Showers Mostly clear 1 - - - -
25/06:30pm 26.0 N 10 15 1007.6 - 4.4 Showers Mostly clear 3 - - - -
25/06:20pm 27.5 SE 5 9 1007.7 - 3.4 Showers Mostly clear 2 - - - -
25/06:14pm 27.7 S 6 8 1007.5 - 3.4 Showers Mostly clear 6 - - - -
25/06:00pm 27.7 S 9 12 1007.1 R 3.4 Distant precip. Cloudy 10 - - - -
25/05:30pm 29.0 WNW 9 11 1007.7 - 3.4 Thunder Mostly clear 10 - - - -
25/05:00pm 28.8 W 10 15 1007.0 - 3.4 - Mostly clear 10 - - - -
25/04:30pm 28.9 W 15 18 1007.1 - 3.4 - Mostly clear 10 - - - -
25/04:00pm 29.7 WNW 20 24 1007.5 - 3.4 - Mostly clear 10 - - - -
25/03:30pm 31.4 WNW 17 21 1007.2 - 3.4 - Mostly clear 10 - - - -
25/03:00pm 30.6 WNW 17 22 1007.2 R 3.4 Distant precip. Mostly cloudy 25 - - - -
25/02:30pm 30.4 WNW 17 21 1008.2 - 3.4 - Mostly clear 10 - - - -
25/02:00pm 31.4 WNW 18 21 1008.3 - 3.4 - Mostly clear 10 - - - -
25/01:30pm 31.3 WNW 16 20 1008.5 - 3.4 - Mostly clear 10 - - - -
25/01:00pm 31.7 WNW 16 19 1009.0 - 3.4 - Mostly clear 10 - - - -
25/12:30pm 31.2 WNW 15 18 1009.2 - 3.4 - Mostly clear 10 - - - -
25/12:00pm 30.9 WNW 16 19 1009.0 F 3.4 Fine Mostly cloudy 30 - - - -
25/11:30am 30.4 WNW 14 17 1009.8 - 3.4 - Mostly clear 10 - - - -
25/11:00am 30.2 WNW 13 16 1010.3 - 3.2 - Mostly clear 10 - - - -
25/10:30am 28.9 WNW 9 12 1010.7 - 3.2 - Mostly clear 10 - - - -
25/10:00am 28.1 WNW 8 10 1010.8 - 3.2 Thunder Mostly clear 10 - - - -
25/09:30am 27.7 W 9 13 1010.6 - 3.2 - Partly cloudy 10 - - - -
25/09:13am 27.5 WNW 8 10 1010.5 - 2.6 Showers Partly cloudy 10 - - - -
25/09:00am 27.4 WNW 9 11 1010.2 R 6.8 Showers Mostly cloudy 5 - - - -
25/08:51am 28.6 WNW 10 14 1010.4 - 0.4 Showers Mostly clear 2 - - - -
25/08:30am 29.3 W 7 8 1009.8 - 0.0 Showers Partly cloudy 10 - - - -
25/08:00am 28.5 WNW 6 8 1009.5 - 0.0 - Mostly clear 10 - - - -
25/07:30am 27.7 W 7 9 1009.0 - 0.0 - Mostly clear 10 - - - -
25/07:00am 26.9 NNW 6 8 1008.5 - 0.0 Thunder Mostly clear 10 - - - -
25/06:30am 27.0 NNW 7 8 1008.2 - 0.0 - Partly cloudy 10 - - - -
25/06:00am 27.4 NNW 6 8 1007.5 F 0.0 Fine Mostly cloudy 30 - - - -
25/05:30am 27.4 NNW 7 10 1008.0 - 0.0 - Mostly clear 10 - - - -
25/05:00am 26.2 NW 6 8 1008.2 - 0.0 - Partly cloudy 10 - - - -
25/04:30am 26.9 WNW 8 10 1008.0 - 0.0 - Mostly clear 10 - - - -
25/04:00am 25.7 WNW 9 11 1007.7 - 0.0 - Mostly clear 10 - - - -
25/03:30am 26.5 WNW 7 9 1007.6 - 0.0 - Mostly clear 10 - - - -
25/03:00am 26.4 NW 9 15 1007.4 F 0.0 Recent precip. Mostly cloudy 30 - - - -
25/02:30am 26.2 N 5 7 1008.1 - 0.0 - Mostly clear 10 - - - -
25/02:00am 26.3 N 4 5 1008.2 - 0.0 - Partly cloudy 10 - - - -
25/01:30am 26.3 NNW 5 7 1008.2 - 0.0 - Mostly clear 10 - - - -
25/01:00am 27.0 NW 7 8 1008.3 - 0.0 - Mostly clear 10 - - - -
25/12:30am 26.4 NNW 7 8 1008.6 - 0.0 - - 10 - - - -
25/12:00am 26.4 NNW 6 8 1009.0 R 0.0 Fine Mostly cloudy 30 - - - -
 
Date/Time
CST
Temp

°C
Wind Pressure Rain
since 9am
mm
Weather Cloud Vis
km
Sea
Height
m
Swell
Dir
 
Speed
knots
Gust
knots
hPa Trend Height
m
Period
s
Dir
24/11:30pm 26.3 N 4 5 1009.7 - 0.0 - Mostly clear 10 - - - -
24/11:00pm 27.4 NW 6 8 1009.7 - 0.0 - - 10 - - - -
24/10:30pm 27.1 NW 7 8 1009.3 - 0.0 - - 10 - - - -
24/10:00pm 27.2 W 6 8 1009.3 - 0.0 - Mostly clear 10 - - - -
24/09:30pm 27.4 WNW 8 9 1008.9 - 0.0 - - 10 - - - -
24/09:00pm 27.6 WNW 8 10 1008.1 R 0.0 Fine Mostly cloudy 30 - - - -
24/08:30pm 27.6 NW 9 11 1008.4 - 0.0 - Partly cloudy 10 - - - -
24/08:00pm 27.4 NNW 8 10 1008.0 - 0.0 - Partly cloudy 10 - - - -
24/07:30pm 27.3 WNW 7 9 1008.1 - 0.0 - - 10 - - - -
24/07:00pm 27.1 W 8 10 1007.5 - 0.0 - Partly cloudy 10 - - - -
24/06:30pm 27.3 WNW 10 14 1006.8 - 0.0 - - 10 - - - -
24/06:00pm 27.8 NW 8 10 1006.1 R 0.0 Fine Mostly cloudy 30 - - - -
24/05:30pm 27.8 WNW 8 10 1006.0 - 0.0 - Mostly clear 10 - - - -
24/05:00pm 27.9 W 6 7 1006.1 - 0.0 - Partly cloudy 10 - - - -
24/04:30pm 28.2 W 9 14 1006.2 - 0.0 - Mostly clear 10 - - - -
24/04:00pm 28.4 WNW 5 7 1006.3 - 0.0 - Mostly clear 10 - - - -
24/03:30pm 27.3 SSW 3 8 1006.5 - 0.0 - Mostly clear 10 - - - -
24/03:00pm 27.2 S 9 13 1006.0 R 0.0 Distant precip. Mostly cloudy 30 - - - -
24/02:30pm 28.4 W 11 13 1006.9 - 0.0 - Mostly clear 10 - - - -
24/02:00pm 29.0 NW 16 19 1006.5 - 0.0 - Mostly clear 10 - - - -
24/01:30pm 29.7 WNW 15 19 1006.7 - 0.0 - Mostly clear 10 - - - -
24/01:00pm 30.0 NNW 12 16 1006.6 - 0.0 - Mostly clear 10 - - - -
24/12:30pm 29.1 WNW 13 15 1006.9 - 0.0 - Partly cloudy 10 - - - -
24/12:00pm 30.5 NW 15 18 1007.0 R 0.0 Distant precip. Mostly cloudy 30 - - - -
24/11:30am 31.8 NW 12 14 1007.5 - 0.0 - Partly cloudy 10 - - - -
24/11:00am 31.4 WNW 11 15 1007.8 - 0.0 - Partly cloudy 10 - - - -
24/10:30am 30.4 WNW 9 10 1008.2 - 0.0 - Partly cloudy 10 - - - -
24/10:00am 29.8 WNW 8 10 1008.5 - 0.0 - Partly cloudy 10 - - - -
24/09:30am 29.4 W 5 7 1008.2 - 0.0 - Partly cloudy 10 - - - -
24/09:00am 29.3 W 6 8 1007.5 R 13.6 Fine Mostly cloudy 30 - - - -
24/08:30am 28.9 W 6 7 1007.7 - 13.6 - Partly cloudy 10 - - - -
24/08:00am 28.5 W 7 8 1007.2 - 13.6 - Partly cloudy 10 - - - -
24/07:30am 28.2 W 7 9 1007.1 - 13.6 - Partly cloudy 10 - - - -
24/07:00am 28.1 W 8 12 1006.7 - 13.6 - Partly cloudy 10 - - - -
24/06:30am 28.1 WSW 9 13 1006.0 - 13.6 - Partly cloudy 10 - - - -
24/06:00am 28.0 W 9 13 1005.5 R 13.6 Lightning Mostly cloudy 16 - - - -
24/05:30am 27.9 W 10 13 1005.7 - 13.6 - Mostly clear 10 - - - -
24/05:00am 27.9 W 9 13 1005.5 - 13.6 - Mostly clear 10 - - - -
24/04:30am 27.9 W 10 15 1005.2 - 13.6 - Partly cloudy 10 - - - -
24/04:06am 27.9 W 9 12 1005.0 - 13.6 - Partly cloudy 10 - - - -
24/04:00am 28.0 W 9 12 1005.0 - 13.6 - Partly cloudy 10 - - - -
24/03:30am 28.0 WSW 10 14 1005.0 - 13.6 - Mostly clear 10 - - - -
24/03:00am 28.1 WSW 11 14 1005.0 F 13.6 Lightning Mostly cloudy 12 - - - -
24/02:30am 28.2 W 9 14 1005.8 - 13.6 - Partly cloudy 10 - - - -
24/02:00am 28.2 W 8 11 1006.1 - 13.6 - Partly cloudy 10 - - - -
24/01:30am 28.2 W 8 11 1006.3 - 13.6 - Partly cloudy 10 - - - -
24/01:23am 28.2 W 9 13 1006.4 - 13.6 - Partly cloudy 10 - - - -
24/01:00am 28.2 W 8 11 1006.6 - 13.6 - Partly cloudy 10 - - - -
24/12:30am 28.3 W 10 13 1007.1 - 13.6 - Mostly clear 10 - - - -
24/12:00am 28.4 W 9 14 1006.8 R 13.6 Fine Mostly cloudy 15 - - - -
 
Date/Time
CST
Temp

°C
Wind Pressure Rain
since 9am
mm
Weather Cloud Vis
km
Sea
Height
m
Swell
Dir
 
Speed
knots
Gust
knots
hPa Trend Height
m
Period
s
Dir
23/11:30pm 28.2 W 11 15 1007.0 - 13.6 - Partly cloudy 10 - - - -
23/11:00pm 27.9 W 10 12 1006.3 - 13.6 - Mostly clear 10 - - - -
23/10:30pm 28.0 W 8 9 1006.3 - 13.6 - Mostly clear 10 - - - -
23/10:00pm 28.2 WSW 7 11 1006.2 - 13.6 - Partly cloudy 10 - - - -
23/09:30pm 28.2 W 10 13 1006.0 - 13.6 - Mostly clear 10 - - - -
23/09:00pm 28.2 W 9 12 1005.7 F 13.6 Haze Cloudy 15 - - - -
23/08:30pm 28.4 W 10 16 1006.2 - 13.6 - Mostly clear 10 - - - -
23/08:00pm 28.3 W 12 16 1006.2 - 13.6 - Mostly clear 10 - - - -
23/07:30pm 28.3 WNW 13 18 1006.0 - 13.6 - Mostly clear 10 - - - -
23/07:00pm 28.1 WNW 15 18 1005.6 - 13.6 Showers Partly cloudy 10 - - - -
23/06:30pm 27.7 W 14 17 1005.3 - 13.6 - Mostly clear 10 - - - -
23/06:00pm 26.5 NW 4 5 1004.5 R 13.6 Haze Cloudy 2 - - - -
23/05:30pm 25.6 NW 5 7 1004.8 - 13.6 - Mostly clear 10 - - - -
23/05:00pm 25.1 NNW 6 6 1004.4 - 13.6 - Mostly clear 10 - - - -
23/04:30pm 24.6 NNE 4 7 1004.7 - 13.4 - Mostly clear 10 - - - -
23/04:00pm 24.8 NNE 6 10 1004.8 - 13.4 - Partly cloudy 10 - - - -
23/03:30pm 26.0 WSW 8 15 1004.3 - 13.4 - Partly cloudy 10 - - - -
23/03:00pm 27.4 WSW 9 14 1004.0 R 13.4 Thunderstorm Cloudy 10 - - - -
23/02:38pm 27.1 WSW 15 18 1003.3 - 12.0 Thunderstorm Partly cloudy 3 - - - -
23/02:30pm 26.9 WSW 15 20 1003.7 - 11.0 Showers Partly cloudy 2 - - - -
23/02:13pm 28.4 W 18 25 1003.6 - 4.2 Showers Mostly clear 2 - - - -
23/02:10pm 28.8 W 17 25 1003.6 - 2.4 Showers Mostly clear 4 - - - -
23/02:00pm 28.7 W 17 24 1003.8 - 2.4 Thunder Partly cloudy 3 - - - -

Other Formats:

Comma delimited format used in spreadsheet applications
http://www.bom.gov.au/fwo/IDD60701/IDD60701.94120.axf

JavaScript Object Notation format (JSON) in row-major order
http://www.bom.gov.au/fwo/IDD60701/IDD60701.94120.json